sensor_id;sensor_type;location;lat;lon;timestamp;temperature;humidity
7325;DHT22;3703;48.016;7.802;2023-09-18T00:03:12;22.20;99.90
7325;DHT22;3703;48.016;7.802;2023-09-18T00:20:26;21.60;1.00
7325;DHT22;3703;48.016;7.802;2023-09-18T00:37:45;23.40;99.90
7325;DHT22;3703;48.016;7.802;2023-09-18T00:52:50;21.80;1.00
7325;DHT22;3703;48.016;7.802;2023-09-18T01:00:14;21.30;1.00
7325;DHT22;3703;48.016;7.802;2023-09-18T01:10:08;22.40;99.90
7325;DHT22;3703;48.016;7.802;2023-09-18T01:12:41;22.80;99.90
7325;DHT22;3703;48.016;7.802;2023-09-18T01:15:20;23.10;99.90
7325;DHT22;3703;48.016;7.802;2023-09-18T01:17:50;23.30;99.90
7325;DHT22;3703;48.016;7.802;2023-09-18T01:22:47;23.50;99.90
7325;DHT22;3703;48.016;7.802;2023-09-18T01:30:11;22.60;99.90
7325;DHT22;3703;48.016;7.802;2023-09-18T01:32:41;22.60;99.90
7325;DHT22;3703;48.016;7.802;2023-09-18T01:35:10;22.00;99.90
7325;DHT22;3703;48.016;7.802;2023-09-18T01:37:37;21.50;99.90
7325;DHT22;3703;48.016;7.802;2023-09-18T01:40:08;22.10;99.90
7325;DHT22;3703;48.016;7.802;2023-09-18T01:50:07;23.00;99.90
7325;DHT22;3703;48.016;7.802;2023-09-18T01:57:32;23.60;99.90
7325;DHT22;3703;48.016;7.802;2023-09-18T02:14:46;21.60;99.90
7325;DHT22;3703;48.016;7.802;2023-09-18T02:24:38;21.50;99.90
7325;DHT22;3703;48.016;7.802;2023-09-18T02:32:04;20.70;99.90
7325;DHT22;3703;48.016;7.802;2023-09-18T02:49:18;19.90;99.90
7325;DHT22;3703;48.016;7.802;2023-09-18T03:06:32;20.30;99.90
7325;DHT22;3703;48.016;7.802;2023-09-18T03:23:45;20.60;99.90
7325;DHT22;3703;48.016;7.802;2023-09-18T03:39:28;21.10;99.90
7325;DHT22;3703;48.016;7.802;2023-09-18T03:56:41;20.40;99.90
7325;DHT22;3703;48.016;7.802;2023-09-18T04:06:36;19.60;99.90
7325;DHT22;3703;48.016;7.802;2023-09-18T04:14:00;19.50;99.90
7325;DHT22;3703;48.016;7.802;2023-09-18T04:16:29;19.80;99.90
7325;DHT22;3703;48.016;7.802;2023-09-18T04:26:22;20.50;99.90
7325;DHT22;3703;48.016;7.802;2023-09-18T04:31:18;21.40;99.90
7325;DHT22;3703;48.016;7.802;2023-09-18T04:47:39;22.00;99.90
7325;DHT22;3703;48.016;7.802;2023-09-18T04:53:12;21.50;99.90
7325;DHT22;3703;48.016;7.802;2023-09-18T05:04:18;21.50;99.90
7325;DHT22;3703;48.016;7.802;2023-09-18T05:12:39;21.60;99.90
7325;DHT22;3703;48.016;7.802;2023-09-18T05:21:01;21.10;99.90
7325;DHT22;3703;48.016;7.802;2023-09-18T05:37:41;21.70;99.90
7325;DHT22;3703;48.016;7.802;2023-09-18T05:46:01;20.60;99.90
7325;DHT22;3703;48.016;7.802;2023-09-18T05:54:20;20.20;99.90
7325;DHT22;3703;48.016;7.802;2023-09-18T06:11:39;21.50;99.90
7325;DHT22;3703;48.016;7.802;2023-09-18T06:28:52;20.20;99.90
7325;DHT22;3703;48.016;7.802;2023-09-18T06:46:08;21.40;99.90
7325;DHT22;3703;48.016;7.802;2023-09-18T07:03:24;21.40;99.90
7325;DHT22;3703;48.016;7.802;2023-09-18T07:10:49;21.00;99.90
7325;DHT22;3703;48.016;7.802;2023-09-18T07:21:01;21.50;99.90
7325;DHT22;3703;48.016;7.802;2023-09-18T07:37:39;20.80;99.90
7325;DHT22;3703;48.016;7.802;2023-09-18T07:53:23;20.20;99.90
7325;DHT22;3703;48.016;7.802;2023-09-18T07:58:37;19.80;99.90
7325;DHT22;3703;48.016;7.802;2023-09-18T09:17:49;20.20;99.90
7325;DHT22;3703;48.016;7.802;2023-09-18T09:20:17;20.70;99.90
7325;DHT22;3703;48.016;7.802;2023-09-18T09:22:45;21.60;99.90
7325;DHT22;3703;48.016;7.802;2023-09-18T09:25:22;21.60;99.90
7325;DHT22;3703;48.016;7.802;2023-09-18T09:27:52;22.20;99.90
7325;DHT22;3703;48.016;7.802;2023-09-18T09:30:24;21.30;99.90
7325;DHT22;3703;48.016;7.802;2023-09-18T09:32:55;21.50;99.90
7325;DHT22;3703;48.016;7.802;2023-09-18T09:37:53;21.40;99.90
7325;DHT22;3703;48.016;7.802;2023-09-18T09:42:54;20.20;99.90
7325;DHT22;3703;48.016;7.802;2023-09-18T09:45:26;21.10;99.90
7325;DHT22;3703;48.016;7.802;2023-09-18T09:47:57;21.50;99.90
7325;DHT22;3703;48.016;7.802;2023-09-18T09:52:54;21.40;99.90
7325;DHT22;3703;48.016;7.802;2023-09-18T09:55:24;21.10;99.90
7325;DHT22;3703;48.016;7.802;2023-09-18T09:57:55;21.20;99.90
7325;DHT22;3703;48.016;7.802;2023-09-18T10:00:26;21.40;99.90
7325;DHT22;3703;48.016;7.802;2023-09-18T10:03:00;21.90;99.90
7325;DHT22;3703;48.016;7.802;2023-09-18T10:05:30;21.70;99.90
7325;DHT22;3703;48.016;7.802;2023-09-18T10:08:04;21.70;99.90
7325;DHT22;3703;48.016;7.802;2023-09-18T10:10:36;21.80;99.90
7325;DHT22;3703;48.016;7.802;2023-09-18T10:13:10;22.00;99.90
7325;DHT22;3703;48.016;7.802;2023-09-18T10:15:40;22.20;99.90
7325;DHT22;3703;48.016;7.802;2023-09-18T10:18:17;21.60;99.90
7325;DHT22;3703;48.016;7.802;2023-09-18T10:20:51;22.10;99.90
7325;DHT22;3703;48.016;7.802;2023-09-18T10:24:14;21.70;99.90
7325;DHT22;3703;48.016;7.802;2023-09-18T10:43:15;20.60;99.90
7325;DHT22;3703;48.016;7.802;2023-09-18T11:04:19;20.90;99.90
7325;DHT22;3703;48.016;7.802;2023-09-18T11:07:02;21.00;99.90
7325;DHT22;3703;48.016;7.802;2023-09-18T11:09:40;21.00;99.90
7325;DHT22;3703;48.016;7.802;2023-09-18T11:12:09;21.10;99.90
7325;DHT22;3703;48.016;7.802;2023-09-18T11:14:48;21.00;99.90
7325;DHT22;3703;48.016;7.802;2023-09-18T11:17:37;21.10;99.90
7325;DHT22;3703;48.016;7.802;2023-09-18T11:20:08;21.30;99.90
7325;DHT22;3703;48.016;7.802;2023-09-18T11:22:57;21.30;99.90
7325;DHT22;3703;48.016;7.802;2023-09-18T11:25:46;21.30;99.90
7325;DHT22;3703;48.016;7.802;2023-09-18T11:28:15;21.30;99.90
7325;DHT22;3703;48.016;7.802;2023-09-18T11:30:50;21.30;99.90
7325;DHT22;3703;48.016;7.802;2023-09-18T11:33:31;21.30;99.90
7325;DHT22;3703;48.016;7.802;2023-09-18T11:36:07;21.50;99.90
7325;DHT22;3703;48.016;7.802;2023-09-18T11:38:53;21.50;99.90
7325;DHT22;3703;48.016;7.802;2023-09-18T11:41:26;21.50;99.90
7325;DHT22;3703;48.016;7.802;2023-09-18T11:46:59;21.70;99.90
7325;DHT22;3703;48.016;7.802;2023-09-18T11:49:27;21.70;99.90
7325;DHT22;3703;48.016;7.802;2023-09-18T11:51:58;21.70;99.90
7325;DHT22;3703;48.016;7.802;2023-09-18T11:54:27;21.70;99.90
7325;DHT22;3703;48.016;7.802;2023-09-18T11:56:57;21.70;99.90
7325;DHT22;3703;48.016;7.802;2023-09-18T11:59:38;21.60;99.90
7325;DHT22;3703;48.016;7.802;2023-09-18T12:02:06;21.70;99.90
7325;DHT22;3703;48.016;7.802;2023-09-18T12:04:34;21.60;99.90
7325;DHT22;3703;48.016;7.802;2023-09-18T12:07:03;21.70;99.90
7325;DHT22;3703;48.016;7.802;2023-09-18T12:09:31;21.70;99.90
7325;DHT22;3703;48.016;7.802;2023-09-18T12:12:01;21.80;99.90
7325;DHT22;3703;48.016;7.802;2023-09-18T12:14:31;21.90;99.90
7325;DHT22;3703;48.016;7.802;2023-09-18T12:16:59;21.90;99.90
7325;DHT22;3703;48.016;7.802;2023-09-18T12:19:28;21.90;99.90
7325;DHT22;3703;48.016;7.802;2023-09-18T12:21:56;22.00;99.90
7325;DHT22;3703;48.016;7.802;2023-09-18T12:24:24;22.20;99.90
7325;DHT22;3703;48.016;7.802;2023-09-18T12:26:52;22.20;99.90
7325;DHT22;3703;48.016;7.802;2023-09-18T12:29:21;22.30;99.90
7325;DHT22;3703;48.016;7.802;2023-09-18T12:31:49;22.40;99.90
7325;DHT22;3703;48.016;7.802;2023-09-18T12:34:19;22.60;99.90
7325;DHT22;3703;48.016;7.802;2023-09-18T12:36:47;22.80;99.90
7325;DHT22;3703;48.016;7.802;2023-09-18T12:39:15;23.00;99.90
7325;DHT22;3703;48.016;7.802;2023-09-18T12:41:43;22.80;99.90
7325;DHT22;3703;48.016;7.802;2023-09-18T12:44:11;22.80;99.90
7325;DHT22;3703;48.016;7.802;2023-09-18T12:46:41;22.70;99.90
7325;DHT22;3703;48.016;7.802;2023-09-18T12:49:18;22.80;99.90
7325;DHT22;3703;48.016;7.802;2023-09-18T12:51:55;22.70;99.90
7325;DHT22;3703;48.016;7.802;2023-09-18T12:54:37;22.50;99.90
7325;DHT22;3703;48.016;7.802;2023-09-18T12:57:05;22.50;99.90
7325;DHT22;3703;48.016;7.802;2023-09-18T12:59:32;22.50;99.90
7325;DHT22;3703;48.016;7.802;2023-09-18T13:02:03;22.60;99.90
7325;DHT22;3703;48.016;7.802;2023-09-18T13:04:30;22.50;99.90
7325;DHT22;3703;48.016;7.802;2023-09-18T13:07:11;22.50;99.90
7325;DHT22;3703;48.016;7.802;2023-09-18T13:09:39;22.40;99.90
7325;DHT22;3703;48.016;7.802;2023-09-18T13:12:07;22.50;99.90
7325;DHT22;3703;48.016;7.802;2023-09-18T13:14:57;22.60;99.90
7325;DHT22;3703;48.016;7.802;2023-09-18T13:17:26;22.70;99.90
7325;DHT22;3703;48.016;7.802;2023-09-18T13:19:53;22.80;99.90
7325;DHT22;3703;48.016;7.802;2023-09-18T13:22:24;22.70;99.90
7325;DHT22;3703;48.016;7.802;2023-09-18T13:24:55;22.80;99.90
7325;DHT22;3703;48.016;7.802;2023-09-18T13:27:23;22.80;99.90
7325;DHT22;3703;48.016;7.802;2023-09-18T13:29:52;22.80;99.90
7325;DHT22;3703;48.016;7.802;2023-09-18T13:32:20;22.70;99.90
7325;DHT22;3703;48.016;7.802;2023-09-18T13:34:49;22.70;99.90
7325;DHT22;3703;48.016;7.802;2023-09-18T13:37:27;22.80;99.90
7325;DHT22;3703;48.016;7.802;2023-09-18T13:39:54;22.90;99.90
7325;DHT22;3703;48.016;7.802;2023-09-18T13:42:22;22.90;99.90
7325;DHT22;3703;48.016;7.802;2023-09-18T13:44:49;22.80;99.90
7325;DHT22;3703;48.016;7.802;2023-09-18T13:47:16;22.90;99.90
7325;DHT22;3703;48.016;7.802;2023-09-18T13:49:43;23.00;99.90
7325;DHT22;3703;48.016;7.802;2023-09-18T13:52:13;23.10;99.90
7325;DHT22;3703;48.016;7.802;2023-09-18T13:54:42;23.10;99.90
7325;DHT22;3703;48.016;7.802;2023-09-18T13:57:09;23.20;99.90
7325;DHT22;3703;48.016;7.802;2023-09-18T13:59:36;23.20;99.90
7325;DHT22;3703;48.016;7.802;2023-09-18T14:02:03;23.20;99.90
7325;DHT22;3703;48.016;7.802;2023-09-18T14:04:31;23.10;99.90
7325;DHT22;3703;48.016;7.802;2023-09-18T14:06:58;23.10;99.90
7325;DHT22;3703;48.016;7.802;2023-09-18T14:09:27;23.10;99.90
7325;DHT22;3703;48.016;7.802;2023-09-18T14:11:55;23.00;99.90
7325;DHT22;3703;48.016;7.802;2023-09-18T14:14:23;23.00;99.90
7325;DHT22;3703;48.016;7.802;2023-09-18T14:16:51;23.00;99.90
7325;DHT22;3703;48.016;7.802;2023-09-18T14:19:19;22.90;99.90
7325;DHT22;3703;48.016;7.802;2023-09-18T14:21:46;22.80;99.90
7325;DHT22;3703;48.016;7.802;2023-09-18T14:24:15;22.80;99.90
7325;DHT22;3703;48.016;7.802;2023-09-18T14:26:45;23.50;99.90
7325;DHT22;3703;48.016;7.802;2023-09-18T14:29:30;23.10;99.90
7325;DHT22;3703;48.016;7.802;2023-09-18T14:32:16;23.50;99.90
7325;DHT22;3703;48.016;7.802;2023-09-18T14:35:02;23.60;99.90
7325;DHT22;3703;48.016;7.802;2023-09-18T14:40:35;23.60;99.90
7325;DHT22;3703;48.016;7.802;2023-09-18T14:43:22;23.60;99.90
7325;DHT22;3703;48.016;7.802;2023-09-18T14:46:09;23.40;99.90
7325;DHT22;3703;48.016;7.802;2023-09-18T14:48:55;23.20;99.90
7325;DHT22;3703;48.016;7.802;2023-09-18T14:51:40;23.20;99.90
7325;DHT22;3703;48.016;7.802;2023-09-18T14:54:26;23.20;99.90
7325;DHT22;3703;48.016;7.802;2023-09-18T14:57:12;23.30;99.90
7325;DHT22;3703;48.016;7.802;2023-09-18T14:59:59;23.20;99.90
7325;DHT22;3703;48.016;7.802;2023-09-18T15:02:45;23.20;99.90
7325;DHT22;3703;48.016;7.802;2023-09-18T15:05:31;23.10;99.90
7325;DHT22;3703;48.016;7.802;2023-09-18T15:08:17;23.20;99.90
7325;DHT22;3703;48.016;7.802;2023-09-18T15:11:04;23.10;99.90
7325;DHT22;3703;48.016;7.802;2023-09-18T15:13:50;23.10;99.90
7325;DHT22;3703;48.016;7.802;2023-09-18T15:16:37;23.00;99.90
7325;DHT22;3703;48.016;7.802;2023-09-18T15:19:23;23.00;99.90
7325;DHT22;3703;48.016;7.802;2023-09-18T15:21:50;22.90;99.90
7325;DHT22;3703;48.016;7.802;2023-09-18T15:24:21;22.90;99.90
7325;DHT22;3703;48.016;7.802;2023-09-18T15:27:07;22.90;99.90
7325;DHT22;3703;48.016;7.802;2023-09-18T15:29:52;22.80;99.90
7325;DHT22;3703;48.016;7.802;2023-09-18T15:32:48;22.50;99.90
7325;DHT22;3703;48.016;7.802;2023-09-18T15:35:18;22.70;99.90
7325;DHT22;3703;48.016;7.802;2023-09-18T15:37:45;22.70;99.90
7325;DHT22;3703;48.016;7.802;2023-09-18T15:40:13;22.90;99.90
7325;DHT22;3703;48.016;7.802;2023-09-18T15:42:41;22.60;99.90
7325;DHT22;3703;48.016;7.802;2023-09-18T15:45:09;22.60;99.90
7325;DHT22;3703;48.016;7.802;2023-09-18T15:47:37;22.60;99.90
7325;DHT22;3703;48.016;7.802;2023-09-18T15:50:06;22.60;99.90
7325;DHT22;3703;48.016;7.802;2023-09-18T15:52:34;22.70;99.90
7325;DHT22;3703;48.016;7.802;2023-09-18T15:55:02;22.40;99.90
7325;DHT22;3703;48.016;7.802;2023-09-18T15:57:31;22.70;99.90
7325;DHT22;3703;48.016;7.802;2023-09-18T15:59:59;22.70;99.90
7325;DHT22;3703;48.016;7.802;2023-09-18T16:02:30;22.70;99.90
7325;DHT22;3703;48.016;7.802;2023-09-18T16:04:57;22.90;99.90
7325;DHT22;3703;48.016;7.802;2023-09-18T16:07:27;23.10;99.90
7325;DHT22;3703;48.016;7.802;2023-09-18T16:09:54;23.10;99.90
7325;DHT22;3703;48.016;7.802;2023-09-18T16:12:21;23.70;99.90
7325;DHT22;3703;48.016;7.802;2023-09-18T16:14:48;23.10;99.90
7325;DHT22;3703;48.016;7.802;2023-09-18T16:17:15;23.20;99.90
7325;DHT22;3703;48.016;7.802;2023-09-18T16:19:43;23.20;99.90
7325;DHT22;3703;48.016;7.802;2023-09-18T16:22:10;23.20;99.90
7325;DHT22;3703;48.016;7.802;2023-09-18T16:24:39;23.20;99.90
7325;DHT22;3703;48.016;7.802;2023-09-18T16:27:06;23.20;99.90
7325;DHT22;3703;48.016;7.802;2023-09-18T16:29:33;23.20;99.90
7325;DHT22;3703;48.016;7.802;2023-09-18T16:32:00;23.00;99.90
7325;DHT22;3703;48.016;7.802;2023-09-18T16:34:28;23.20;99.90
7325;DHT22;3703;48.016;7.802;2023-09-18T16:36:55;23.50;99.90
7325;DHT22;3703;48.016;7.802;2023-09-18T16:39:42;23.10;99.90
7325;DHT22;3703;48.016;7.802;2023-09-18T16:42:10;23.10;99.90
7325;DHT22;3703;48.016;7.802;2023-09-18T16:44:37;23.10;99.90
7325;DHT22;3703;48.016;7.802;2023-09-18T16:47:05;22.90;99.90
7325;DHT22;3703;48.016;7.802;2023-09-18T16:49:33;23.00;99.90
7325;DHT22;3703;48.016;7.802;2023-09-18T16:52:01;23.00;99.90
7325;DHT22;3703;48.016;7.802;2023-09-18T16:54:30;23.00;99.90
7325;DHT22;3703;48.016;7.802;2023-09-18T16:56:59;23.10;99.90
7325;DHT22;3703;48.016;7.802;2023-09-18T16:59:26;23.20;99.90
7325;DHT22;3703;48.016;7.802;2023-09-18T17:01:55;23.20;99.90
7325;DHT22;3703;48.016;7.802;2023-09-18T17:04:23;23.50;99.90
7325;DHT22;3703;48.016;7.802;2023-09-18T17:06:50;23.30;99.90
7325;DHT22;3703;48.016;7.802;2023-09-18T17:09:17;23.40;99.90
7325;DHT22;3703;48.016;7.802;2023-09-18T17:11:44;23.30;99.90
7325;DHT22;3703;48.016;7.802;2023-09-18T17:14:13;23.30;99.90
7325;DHT22;3703;48.016;7.802;2023-09-18T17:16:40;24.30;99.90
7325;DHT22;3703;48.016;7.802;2023-09-18T17:19:08;23.20;1.00
7325;DHT22;3703;48.016;7.802;2023-09-18T17:21:59;23.20;1.00
7325;DHT22;3703;48.016;7.802;2023-09-18T17:24:29;23.10;1.00
7325;DHT22;3703;48.016;7.802;2023-09-18T17:26:58;22.70;1.00
7325;DHT22;3703;48.016;7.802;2023-09-18T17:29:26;22.80;1.00
7325;DHT22;3703;48.016;7.802;2023-09-18T17:31:53;22.80;1.00
7325;DHT22;3703;48.016;7.802;2023-09-18T17:34:20;22.80;1.00
7325;DHT22;3703;48.016;7.802;2023-09-18T17:36:48;22.90;1.00
7325;DHT22;3703;48.016;7.802;2023-09-18T17:39:16;22.90;1.00
7325;DHT22;3703;48.016;7.802;2023-09-18T17:41:43;22.80;1.00
7325;DHT22;3703;48.016;7.802;2023-09-18T17:44:11;22.70;1.00
7325;DHT22;3703;48.016;7.802;2023-09-18T17:46:39;22.60;1.00
7325;DHT22;3703;48.016;7.802;2023-09-18T17:49:07;22.50;1.00
7325;DHT22;3703;48.016;7.802;2023-09-18T17:51:50;22.50;1.00
7325;DHT22;3703;48.016;7.802;2023-09-18T17:54:17;22.60;1.00
7325;DHT22;3703;48.016;7.802;2023-09-18T17:56:44;22.00;1.00
7325;DHT22;3703;48.016;7.802;2023-09-18T17:59:11;22.50;1.00
7325;DHT22;3703;48.016;7.802;2023-09-18T18:01:59;22.30;1.00
7325;DHT22;3703;48.016;7.802;2023-09-18T18:04:38;22.40;54.90
7325;DHT22;3703;48.016;7.802;2023-09-18T18:07:10;22.40;99.90
7325;DHT22;3703;48.016;7.802;2023-09-18T18:09:37;22.40;99.90
7325;DHT22;3703;48.016;7.802;2023-09-18T18:12:05;22.40;99.90
7325;DHT22;3703;48.016;7.802;2023-09-18T18:14:32;22.40;99.90
7325;DHT22;3703;48.016;7.802;2023-09-18T18:17:01;22.40;99.90
7325;DHT22;3703;48.016;7.802;2023-09-18T18:19:29;22.60;99.90
7325;DHT22;3703;48.016;7.802;2023-09-18T18:22:15;22.70;99.90
7325;DHT22;3703;48.016;7.802;2023-09-18T18:25:01;22.60;99.90
7325;DHT22;3703;48.016;7.802;2023-09-18T18:27:28;22.60;99.90
7325;DHT22;3703;48.016;7.802;2023-09-18T18:30:15;22.60;99.90
7325;DHT22;3703;48.016;7.802;2023-09-18T18:33:03;22.30;99.90
7325;DHT22;3703;48.016;7.802;2023-09-18T18:35:49;22.20;99.90
7325;DHT22;3703;48.016;7.802;2023-09-18T18:38:16;22.10;99.90
7325;DHT22;3703;48.016;7.802;2023-09-18T18:40:54;22.00;99.90
7325;DHT22;3703;48.016;7.802;2023-09-18T18:43:22;22.30;99.90
7325;DHT22;3703;48.016;7.802;2023-09-18T18:46:09;21.70;99.90
7325;DHT22;3703;48.016;7.802;2023-09-18T18:48:56;20.60;1.00
7325;DHT22;3703;48.016;7.802;2023-09-18T18:51:24;20.00;1.00
7325;DHT22;3703;48.016;7.802;2023-09-18T18:53:51;20.30;3.80
7325;DHT22;3703;48.016;7.802;2023-09-18T18:56:38;19.40;36.70
7325;DHT22;3703;48.016;7.802;2023-09-18T18:59:05;19.80;30.70
7325;DHT22;3703;48.016;7.802;2023-09-18T19:01:32;20.10;99.90
7325;DHT22;3703;48.016;7.802;2023-09-18T19:04:02;20.40;99.90
7325;DHT22;3703;48.016;7.802;2023-09-18T19:06:29;20.50;99.90
7325;DHT22;3703;48.016;7.802;2023-09-18T19:08:57;20.50;99.90
7325;DHT22;3703;48.016;7.802;2023-09-18T19:11:24;20.30;99.90
7325;DHT22;3703;48.016;7.802;2023-09-18T19:13:52;20.20;99.90
7325;DHT22;3703;48.016;7.802;2023-09-18T19:16:20;20.40;99.90
7325;DHT22;3703;48.016;7.802;2023-09-18T19:18:47;20.10;99.90
7325;DHT22;3703;48.016;7.802;2023-09-18T19:21:15;19.90;99.90
7325;DHT22;3703;48.016;7.802;2023-09-18T19:23:42;19.60;99.90
7325;DHT22;3703;48.016;7.802;2023-09-18T19:26:10;19.40;99.90
7325;DHT22;3703;48.016;7.802;2023-09-18T19:28:38;19.50;99.90
7325;DHT22;3703;48.016;7.802;2023-09-18T19:31:05;19.50;99.90
7325;DHT22;3703;48.016;7.802;2023-09-18T19:33:52;19.90;99.90
7325;DHT22;3703;48.016;7.802;2023-09-18T19:36:41;20.10;99.90
7325;DHT22;3703;48.016;7.802;2023-09-18T19:39:28;20.40;99.90
7325;DHT22;3703;48.016;7.802;2023-09-18T19:42:14;20.50;99.90
7325;DHT22;3703;48.016;7.802;2023-09-18T19:44:59;20.50;99.90
7325;DHT22;3703;48.016;7.802;2023-09-18T19:47:45;20.70;99.90
7325;DHT22;3703;48.016;7.802;2023-09-18T19:50:32;20.50;99.90
7325;DHT22;3703;48.016;7.802;2023-09-18T19:53:19;20.60;99.90
7325;DHT22;3703;48.016;7.802;2023-09-18T19:56:05;20.60;99.90
7325;DHT22;3703;48.016;7.802;2023-09-18T19:58:51;20.60;99.90
7325;DHT22;3703;48.016;7.802;2023-09-18T20:01:37;20.60;99.90
7325;DHT22;3703;48.016;7.802;2023-09-18T20:04:22;20.20;99.90
7325;DHT22;3703;48.016;7.802;2023-09-18T20:07:09;19.50;99.90
7325;DHT22;3703;48.016;7.802;2023-09-18T20:09:57;19.40;99.90
7325;DHT22;3703;48.016;7.802;2023-09-18T20:12:43;19.20;99.90
7325;DHT22;3703;48.016;7.802;2023-09-18T20:15:29;19.40;99.90
7325;DHT22;3703;48.016;7.802;2023-09-18T20:18:16;20.20;99.90
7325;DHT22;3703;48.016;7.802;2023-09-18T20:21:01;20.50;99.90
7325;DHT22;3703;48.016;7.802;2023-09-18T20:23:52;20.50;99.90
7325;DHT22;3703;48.016;7.802;2023-09-18T20:26:21;20.00;99.90
7325;DHT22;3703;48.016;7.802;2023-09-18T20:28:48;20.10;99.90
7325;DHT22;3703;48.016;7.802;2023-09-18T20:31:15;20.60;99.90
7325;DHT22;3703;48.016;7.802;2023-09-18T20:33:43;21.50;99.90
7325;DHT22;3703;48.016;7.802;2023-09-18T20:36:10;20.60;99.90
7325;DHT22;3703;48.016;7.802;2023-09-18T20:38:37;19.60;99.90
7325;DHT22;3703;48.016;7.802;2023-09-18T20:41:04;19.10;99.90
7325;DHT22;3703;48.016;7.802;2023-09-18T20:43:32;19.20;99.90
7325;DHT22;3703;48.016;7.802;2023-09-18T20:46:02;19.70;99.90
7325;DHT22;3703;48.016;7.802;2023-09-18T20:48:32;19.70;99.90
7325;DHT22;3703;48.016;7.802;2023-09-18T20:50:59;20.00;99.90
7325;DHT22;3703;48.016;7.802;2023-09-18T20:53:26;19.80;99.90
7325;DHT22;3703;48.016;7.802;2023-09-18T20:55:53;19.60;99.90
7325;DHT22;3703;48.016;7.802;2023-09-18T20:58:20;19.70;99.90
7325;DHT22;3703;48.016;7.802;2023-09-18T21:00:49;19.70;99.90
7325;DHT22;3703;48.016;7.802;2023-09-18T21:03:17;19.80;99.90
7325;DHT22;3703;48.016;7.802;2023-09-18T21:05:44;19.50;99.90
7325;DHT22;3703;48.016;7.802;2023-09-18T21:08:11;20.00;99.90
7325;DHT22;3703;48.016;7.802;2023-09-18T21:10:38;20.10;99.90
7325;DHT22;3703;48.016;7.802;2023-09-18T21:13:05;20.30;99.90
7325;DHT22;3703;48.016;7.802;2023-09-18T21:15:34;20.30;99.90
7325;DHT22;3703;48.016;7.802;2023-09-18T21:18:04;20.30;99.90
7325;DHT22;3703;48.016;7.802;2023-09-18T21:20:31;20.30;99.90
7325;DHT22;3703;48.016;7.802;2023-09-18T21:23:00;20.10;99.90
7325;DHT22;3703;48.016;7.802;2023-09-18T21:25:29;20.00;99.90
7325;DHT22;3703;48.016;7.802;2023-09-18T21:27:57;19.90;99.90
7325;DHT22;3703;48.016;7.802;2023-09-18T21:30:26;19.80;99.90
7325;DHT22;3703;48.016;7.802;2023-09-18T21:32:54;19.60;99.90
7325;DHT22;3703;48.016;7.802;2023-09-18T21:35:25;19.50;99.90
7325;DHT22;3703;48.016;7.802;2023-09-18T21:37:53;18.70;99.90
7325;DHT22;3703;48.016;7.802;2023-09-18T21:40:25;19.10;99.90
7325;DHT22;3703;48.016;7.802;2023-09-18T21:42:52;18.70;99.90
7325;DHT22;3703;48.016;7.802;2023-09-18T21:45:19;19.00;99.90
7325;DHT22;3703;48.016;7.802;2023-09-18T21:47:47;19.10;99.90
7325;DHT22;3703;48.016;7.802;2023-09-18T21:50:16;19.10;99.90
7325;DHT22;3703;48.016;7.802;2023-09-18T21:52:45;19.20;99.90
7325;DHT22;3703;48.016;7.802;2023-09-18T21:55:12;19.20;99.90
7325;DHT22;3703;48.016;7.802;2023-09-18T21:57:40;19.20;99.90
7325;DHT22;3703;48.016;7.802;2023-09-18T22:00:08;19.10;99.90
7325;DHT22;3703;48.016;7.802;2023-09-18T22:02:54;19.20;99.90
7325;DHT22;3703;48.016;7.802;2023-09-18T22:05:21;19.30;99.90
7325;DHT22;3703;48.016;7.802;2023-09-18T22:07:50;19.20;99.90
7325;DHT22;3703;48.016;7.802;2023-09-18T22:10:17;19.10;99.90
7325;DHT22;3703;48.016;7.802;2023-09-18T22:12:44;18.90;99.90
7325;DHT22;3703;48.016;7.802;2023-09-18T22:15:11;19.10;99.90
7325;DHT22;3703;48.016;7.802;2023-09-18T22:17:39;19.20;99.90
7325;DHT22;3703;48.016;7.802;2023-09-18T22:20:24;19.20;99.90
7325;DHT22;3703;48.016;7.802;2023-09-18T22:23:12;19.00;99.90
7325;DHT22;3703;48.016;7.802;2023-09-18T22:25:57;18.90;99.90
7325;DHT22;3703;48.016;7.802;2023-09-18T22:28:46;19.00;99.90
7325;DHT22;3703;48.016;7.802;2023-09-18T22:31:31;19.10;99.90
7325;DHT22;3703;48.016;7.802;2023-09-18T22:34:17;19.10;99.90
7325;DHT22;3703;48.016;7.802;2023-09-18T22:37:03;19.20;99.90
7325;DHT22;3703;48.016;7.802;2023-09-18T22:56:45;19.10;99.90
7325;DHT22;3703;48.016;7.802;2023-09-18T22:59:31;19.20;99.90
7325;DHT22;3703;48.016;7.802;2023-09-18T23:02:19;18.90;99.90
7325;DHT22;3703;48.016;7.802;2023-09-18T23:05:05;18.90;99.90
7325;DHT22;3703;48.016;7.802;2023-09-18T23:07:54;18.90;99.90
7325;DHT22;3703;48.016;7.802;2023-09-18T23:10:40;18.90;99.90
7325;DHT22;3703;48.016;7.802;2023-09-18T23:13:28;18.60;99.90
7325;DHT22;3703;48.016;7.802;2023-09-18T23:16:16;18.50;99.90
7325;DHT22;3703;48.016;7.802;2023-09-18T23:18:43;18.70;99.90
7325;DHT22;3703;48.016;7.802;2023-09-18T23:21:29;18.40;99.90
7325;DHT22;3703;48.016;7.802;2023-09-18T23:24:03;18.40;99.90
7325;DHT22;3703;48.016;7.802;2023-09-18T23:26:30;18.50;99.90
7325;DHT22;3703;48.016;7.802;2023-09-18T23:28:59;18.60;99.90
7325;DHT22;3703;48.016;7.802;2023-09-18T23:31:45;18.50;99.90
7325;DHT22;3703;48.016;7.802;2023-09-18T23:34:31;18.40;99.90
7325;DHT22;3703;48.016;7.802;2023-09-18T23:37:18;18.30;99.90
7325;DHT22;3703;48.016;7.802;2023-09-18T23:40:09;18.30;99.90
7325;DHT22;3703;48.016;7.802;2023-09-18T23:42:58;17.60;99.90
7325;DHT22;3703;48.016;7.802;2023-09-18T23:45:49;18.30;99.90
7325;DHT22;3703;48.016;7.802;2023-09-18T23:48:38;18.00;99.90
7325;DHT22;3703;48.016;7.802;2023-09-18T23:51:26;18.40;99.90
7325;DHT22;3703;48.016;7.802;2023-09-18T23:54:13;18.30;99.90
7325;DHT22;3703;48.016;7.802;2023-09-18T23:57:00;18.20;99.90
7325;DHT22;3703;48.016;7.802;2023-09-18T23:59:52;18.20;99.90
